Time;durP1;ratioP1;P1;durP2;ratioP2;P2;SDS_P1;SDS_P2;PMS_P1;PMS_P2;Temp;Humidity;BMP_temperature;BMP_pressure;BME280_temperature;BME280_humidity;BME280_pressure;Samples;Min_cycle;Max_cycle;Signal;HPM_P1;HPM_P2
2024/01/09 00:00:17;;;;;;;;;;;-2.80;99.90;;;;;;5049725;28;20045;-32
2024/01/09 00:02:44;;;;;;;;;;;-2.80;99.90;;;;;;5053406;28;19986;-32
2024/01/09 00:05:10;;;;;;;;;;;-2.80;99.90;;;;;;5053004;28;19933;-32
2024/01/09 00:07:37;;;;;;;;;;;-2.80;99.90;;;;;;5070809;28;19971;-32
2024/01/09 00:10:06;;;;;;;;;;;-2.80;99.90;;;;;;5051572;28;19924;-33
2024/01/09 00:12:32;;;;;;;;;;;-2.80;99.90;;;;;;5050555;28;20013;-30
2024/01/09 00:14:59;;;;;;;;;;;-2.80;99.90;;;;;;5053197;28;19924;-31
2024/01/09 00:17:26;;;;;;;;;;;-2.90;99.90;;;;;;5062731;28;20356;-31
2024/01/09 00:19:52;;;;;;;;;;;-2.90;99.90;;;;;;5062140;28;19936;-32
2024/01/09 00:22:24;;;;;;;;;;;-2.90;99.90;;;;;;5056362;28;19928;-32
2024/01/09 00:24:51;;;;;;;;;;;-2.90;99.90;;;;;;5074814;28;20437;-31
2024/01/09 00:27:19;;;;;;;;;;;-2.90;99.90;;;;;;5065810;28;19986;-31
2024/01/09 00:29:45;;;;;;;;;;;-3.00;99.90;;;;;;5053411;28;19974;-31
2024/01/09 00:32:12;;;;;;;;;;;-2.90;99.90;;;;;;5071474;28;19925;-33
2024/01/09 00:34:38;;;;;;;;;;;-3.00;99.90;;;;;;5056863;28;19986;-32
2024/01/09 00:37:05;;;;;;;;;;;-3.00;99.90;;;;;;5053730;28;19976;-33
2024/01/09 00:39:32;;;;;;;;;;;-3.00;99.90;;;;;;5073711;28;19993;-33
2024/01/09 00:41:58;;;;;;;;;;;-3.10;99.90;;;;;;5054624;28;20372;-31
2024/01/09 00:44:26;;;;;;;;;;;-3.00;99.90;;;;;;5056255;28;19986;-31
2024/01/09 00:46:53;;;;;;;;;;;-3.10;99.90;;;;;;5056365;28;19972;-31
2024/01/09 00:49:19;;;;;;;;;;;-3.00;99.90;;;;;;5072525;28;19966;-32
2024/01/09 00:51:46;;;;;;;;;;;-3.10;99.90;;;;;;5062294;28;19925;-31
2024/01/09 00:54:13;;;;;;;;;;;-3.10;99.90;;;;;;5070946;28;19986;-31
2024/01/09 00:56:39;;;;;;;;;;;-3.10;99.90;;;;;;5072406;28;19998;-32
2024/01/09 00:59:06;;;;;;;;;;;-3.20;99.90;;;;;;5067512;28;20011;-30
2024/01/09 01:01:34;;;;;;;;;;;-3.20;99.90;;;;;;5064027;28;19924;-31
2024/01/09 01:04:00;;;;;;;;;;;-3.20;99.90;;;;;;5071897;28;19974;-31
2024/01/09 01:06:27;;;;;;;;;;;-3.20;99.90;;;;;;5074263;28;19925;-32
2024/01/09 01:08:54;;;;;;;;;;;-3.20;99.90;;;;;;5071415;28;20370;-32
2024/01/09 01:11:20;;;;;;;;;;;-3.30;99.90;;;;;;5071012;28;19985;-31
2024/01/09 01:13:47;;;;;;;;;;;-3.30;99.90;;;;;;5074177;28;19971;-31
2024/01/09 01:16:14;;;;;;;;;;;-3.30;99.90;;;;;;5072449;28;19964;-33
2024/01/09 01:18:42;;;;;;;;;;;-3.40;99.90;;;;;;5072641;28;19974;-31
2024/01/09 01:21:09;;;;;;;;;;;-3.40;99.90;;;;;;5072036;28;19993;-31
2024/01/09 01:23:35;;;;;;;;;;;-3.40;99.90;;;;;;5059240;28;19925;-32
2024/01/09 01:26:02;;;;;;;;;;;-3.40;99.90;;;;;;5066339;28;19955;-31
2024/01/09 01:28:29;;;;;;;;;;;-3.40;99.90;;;;;;5070599;28;19932;-32
2024/01/09 01:30:56;;;;;;;;;;;-3.40;99.90;;;;;;5065829;28;20278;-32
2024/01/09 01:33:22;;;;;;;;;;;-3.50;99.90;;;;;;5069719;28;19947;-31
2024/01/09 01:35:50;;;;;;;;;;;-3.50;99.90;;;;;;5067335;28;20163;-31
2024/01/09 01:38:18;;;;;;;;;;;-3.50;99.90;;;;;;5072258;28;19928;-33
2024/01/09 01:40:44;;;;;;;;;;;-3.60;99.90;;;;;;5065866;28;19932;-31
2024/01/09 01:43:11;;;;;;;;;;;-3.60;99.90;;;;;;5072835;28;20366;-31
2024/01/09 01:45:38;;;;;;;;;;;-3.60;99.90;;;;;;5072735;28;19990;-32
2024/01/09 01:48:05;;;;;;;;;;;-3.60;99.90;;;;;;5073834;28;19970;-31
2024/01/09 01:50:31;;;;;;;;;;;-3.60;99.90;;;;;;5072652;28;19932;-33
2024/01/09 01:52:59;;;;;;;;;;;-3.70;99.90;;;;;;5067986;28;19960;-32
2024/01/09 01:55:26;;;;;;;;;;;-3.60;99.90;;;;;;5064194;28;19928;-32
2024/01/09 01:57:52;;;;;;;;;;;-3.60;99.90;;;;;;5071744;28;19981;-31
2024/01/09 02:00:19;;;;;;;;;;;-3.70;99.90;;;;;;5071354;28;19987;-30
2024/01/09 02:02:46;;;;;;;;;;;-3.60;99.90;;;;;;5065476;28;20438;-31
2024/01/09 02:05:12;;;;;;;;;;;-3.70;99.90;;;;;;5072222;28;19970;-31
2024/01/09 02:07:39;;;;;;;;;;;-3.70;99.90;;;;;;5072491;28;19982;-31
2024/01/09 02:10:07;;;;;;;;;;;-3.70;99.90;;;;;;5070723;28;19977;-31
2024/01/09 02:12:34;;;;;;;;;;;-3.70;99.90;;;;;;5070679;28;20062;-34
2024/01/09 02:15:01;;;;;;;;;;;-3.70;99.90;;;;;;5065617;28;19978;-30
2024/01/09 02:17:27;;;;;;;;;;;-3.70;99.90;;;;;;5063340;28;19925;-31
2024/01/09 02:19:54;;;;;;;;;;;-3.70;99.90;;;;;;5055162;28;19925;-31
2024/01/09 02:22:20;;;;;;;;;;;-3.80;99.90;;;;;;5065098;28;20223;-31
2024/01/09 02:24:47;;;;;;;;;;;-3.70;99.90;;;;;;5069447;28;20011;-31
2024/01/09 02:27:18;;;;;;;;;;;-3.70;99.90;;;;;;5071667;28;19928;-31
2024/01/09 02:29:49;;;;;;;;;;;-3.70;99.90;;;;;;5071291;28;19956;-31
2024/01/09 02:32:16;;;;;;;;;;;-3.70;99.90;;;;;;5066303;28;20303;-31
2024/01/09 02:34:42;;;;;;;;;;;-3.70;99.90;;;;;;5072427;28;19978;-31
2024/01/09 02:37:10;;;;;;;;;;;-3.70;99.90;;;;;;5062092;28;19928;-31
2024/01/09 02:39:37;;;;;;;;;;;-3.70;99.90;;;;;;5065259;28;19967;-32
2024/01/09 02:42:03;;;;;;;;;;;-3.70;99.90;;;;;;5056686;28;19999;-31
2024/01/09 02:44:30;;;;;;;;;;;-3.70;99.90;;;;;;5071201;28;19982;-31
2024/01/09 02:46:58;;;;;;;;;;;-3.80;99.90;;;;;;5069528;28;19985;-32
2024/01/09 02:49:25;;;;;;;;;;;-3.80;99.90;;;;;;5069840;28;19925;-31
2024/01/09 02:51:51;;;;;;;;;;;-3.80;99.90;;;;;;5067013;28;19933;-33
2024/01/09 02:54:18;;;;;;;;;;;-3.80;99.90;;;;;;5070829;28;19960;-32
2024/01/09 02:56:44;;;;;;;;;;;-3.80;99.90;;;;;;5072526;28;19974;-32
2024/01/09 02:59:11;;;;;;;;;;;-3.70;99.90;;;;;;5070149;28;19928;-32
2024/01/09 03:01:38;;;;;;;;;;;-3.80;99.90;;;;;;5070365;28;20346;-32
2024/01/09 03:04:06;;;;;;;;;;;-3.80;99.90;;;;;;5062882;28;19970;-32
2024/01/09 03:06:32;;;;;;;;;;;-3.80;99.90;;;;;;5070750;28;19924;-31
2024/01/09 03:08:59;;;;;;;;;;;-3.80;99.90;;;;;;5069587;28;19967;-32
2024/01/09 03:11:26;;;;;;;;;;;-3.80;99.90;;;;;;5069681;28;20356;-30
2024/01/09 03:13:52;;;;;;;;;;;-3.80;99.90;;;;;;5071939;28;20425;-31
2024/01/09 03:16:19;;;;;;;;;;;-3.90;99.90;;;;;;5066665;28;19924;-31
2024/01/09 03:18:45;;;;;;;;;;;-3.90;99.90;;;;;;5066457;28;19978;-31
2024/01/09 03:21:14;;;;;;;;;;;-3.90;99.90;;;;;;5070425;28;19925;-31
2024/01/09 03:23:41;;;;;;;;;;;-3.90;99.90;;;;;;5055618;28;20326;-31
2024/01/09 03:26:07;;;;;;;;;;;-3.90;99.90;;;;;;5072476;28;20521;-32
2024/01/09 03:28:34;;;;;;;;;;;-3.90;99.90;;;;;;5071508;28;19924;-31
2024/01/09 03:31:01;;;;;;;;;;;-3.90;99.90;;;;;;5069440;28;19932;-32
2024/01/09 03:33:28;;;;;;;;;;;-3.90;99.90;;;;;;5064289;28;19925;-33
2024/01/09 03:35:54;;;;;;;;;;;-4.00;99.90;;;;;;5054414;28;19925;-31
2024/01/09 03:38:22;;;;;;;;;;;-4.00;99.90;;;;;;5071579;28;20421;-30
2024/01/09 03:40:50;;;;;;;;;;;-3.90;99.90;;;;;;5069292;28;20425;-32
2024/01/09 03:43:17;;;;;;;;;;;-4.00;99.90;;;;;;5070501;28;19924;-32
2024/01/09 03:45:43;;;;;;;;;;;-4.00;99.90;;;;;;5070091;28;19946;-31
2024/01/09 03:48:10;;;;;;;;;;;-4.00;99.90;;;;;;5068600;28;19928;-31
2024/01/09 03:50:37;;;;;;;;;;;-4.00;99.90;;;;;;5065672;28;19925;-31
2024/01/09 03:53:03;;;;;;;;;;;-4.00;99.90;;;;;;5071709;28;19924;-31
2024/01/09 03:55:32;;;;;;;;;;;-4.10;99.90;;;;;;5068901;28;19924;-32
2024/01/09 03:57:58;;;;;;;;;;;-4.00;99.90;;;;;;5070527;28;20304;-32
2024/01/09 04:00:25;;;;;;;;;;;-4.00;99.90;;;;;;5069083;28;19925;-32
2024/01/09 04:02:52;;;;;;;;;;;-4.00;99.90;;;;;;5061819;28;19990;-32
2024/01/09 04:05:18;;;;;;;;;;;-4.10;99.90;;;;;;5070891;28;19924;-32
2024/01/09 04:07:45;;;;;;;;;;;-4.10;99.90;;;;;;5066067;28;19955;-31
2024/01/09 04:10:11;;;;;;;;;;;-4.10;99.90;;;;;;5061304;28;20299;-31
2024/01/09 04:12:39;;;;;;;;;;;-4.10;99.90;;;;;;5069573;28;19950;-32
2024/01/09 04:15:07;;;;;;;;;;;-4.20;99.90;;;;;;5072265;28;19925;-31
2024/01/09 04:17:33;;;;;;;;;;;-4.10;99.90;;;;;;5068546;28;19982;-31
2024/01/09 04:20:01;;;;;;;;;;;-4.20;99.90;;;;;;5070418;28;19924;-31
2024/01/09 04:22:27;;;;;;;;;;;-4.10;99.90;;;;;;5069955;28;19924;-31
2024/01/09 04:24:54;;;;;;;;;;;-4.10;99.90;;;;;;5054458;28;19951;-32
2024/01/09 04:27:21;;;;;;;;;;;-4.20;99.90;;;;;;5069869;28;19924;-32
2024/01/09 04:29:49;;;;;;;;;;;-4.20;99.90;;;;;;5069799;28;19970;-32
2024/01/09 04:32:15;;;;;;;;;;;-4.20;99.90;;;;;;5069745;28;19924;-31
2024/01/09 04:34:42;;;;;;;;;;;-4.20;99.90;;;;;;5070018;28;20412;-33
2024/01/09 04:37:09;;;;;;;;;;;-4.20;99.90;;;;;;5054052;28;20426;-31
2024/01/09 04:39:36;;;;;;;;;;;-4.20;99.90;;;;;;5057815;28;19967;-31
2024/01/09 04:42:02;;;;;;;;;;;-4.20;99.90;;;;;;5069160;28;19924;-33
2024/01/09 04:44:29;;;;;;;;;;;-4.20;99.90;;;;;;5064924;28;19971;-32
2024/01/09 04:46:57;;;;;;;;;;;-4.30;99.90;;;;;;5057462;28;19925;-31
2024/01/09 04:49:23;;;;;;;;;;;-4.30;99.90;;;;;;5068549;28;19932;-32
2024/01/09 04:51:50;;;;;;;;;;;-4.20;99.90;;;;;;5067671;28;19933;-32
2024/01/09 04:54:17;;;;;;;;;;;-4.30;99.90;;;;;;5051534;28;19970;-31
2024/01/09 04:56:44;;;;;;;;;;;-4.30;99.90;;;;;;5067560;28;20354;-32
2024/01/09 04:59:10;;;;;;;;;;;-4.30;99.90;;;;;;5060080;28;20303;-32
2024/01/09 05:01:37;;;;;;;;;;;-4.40;99.90;;;;;;5060137;28;20295;-32
2024/01/09 05:04:05;;;;;;;;;;;-4.30;99.90;;;;;;5074105;28;19924;-32
2024/01/09 05:06:32;;;;;;;;;;;-4.40;99.90;;;;;;5073553;28;19925;-32
2024/01/09 05:08:58;;;;;;;;;;;-4.40;99.90;;;;;;5067718;28;19955;-32
2024/01/09 05:11:25;;;;;;;;;;;-4.40;99.90;;;;;;5067793;28;19932;-31
2024/01/09 05:13:51;;;;;;;;;;;-4.40;99.90;;;;;;5065261;28;19974;-32
2024/01/09 05:16:18;;;;;;;;;;;-4.40;99.90;;;;;;5072410;28;19924;-32
2024/01/09 05:18:45;;;;;;;;;;;-4.40;99.90;;;;;;5067766;28;19929;-32
2024/01/09 05:21:13;;;;;;;;;;;-4.50;99.90;;;;;;5057665;28;19928;-31
2024/01/09 05:23:40;;;;;;;;;;;-4.40;99.90;;;;;;5070778;28;19932;-31
2024/01/09 05:26:07;;;;;;;;;;;-4.50;99.90;;;;;;5063695;28;20025;-32
2024/01/09 05:28:33;;;;;;;;;;;-4.50;99.90;;;;;;5072276;28;19978;-31
2024/01/09 05:31:01;;;;;;;;;;;-4.50;99.90;;;;;;5071543;28;19928;-31
2024/01/09 05:33:28;;;;;;;;;;;-4.50;99.90;;;;;;5073920;28;20357;-32
2024/01/09 05:35:55;;;;;;;;;;;-4.50;99.90;;;;;;5073828;28;19970;-33
2024/01/09 05:38:23;;;;;;;;;;;-4.50;99.90;;;;;;5072435;28;19976;-31
2024/01/09 05:40:49;;;;;;;;;;;-4.50;99.90;;;;;;5073694;28;19924;-32
2024/01/09 05:43:16;;;;;;;;;;;-4.50;99.90;;;;;;5073060;28;19924;-32
2024/01/09 05:45:43;;;;;;;;;;;-4.50;99.90;;;;;;5067349;28;20021;-32
2024/01/09 05:48:09;;;;;;;;;;;-4.50;99.90;;;;;;5071462;28;19970;-31
2024/01/09 05:50:36;;;;;;;;;;;-4.50;99.90;;;;;;5069468;28;19954;-31
2024/01/09 05:53:02;;;;;;;;;;;-4.50;99.90;;;;;;5073025;28;19932;-33
2024/01/09 05:55:30;;;;;;;;;;;-4.50;99.90;;;;;;5072319;28;19924;-33
2024/01/09 05:57:57;;;;;;;;;;;-4.60;99.90;;;;;;5073028;28;19924;-31
2024/01/09 06:00:24;;;;;;;;;;;-4.60;99.90;;;;;;5071282;28;19971;-32
2024/01/09 06:02:51;;;;;;;;;;;-4.60;99.90;;;;;;5072219;28;20023;-31
2024/01/09 06:05:17;;;;;;;;;;;-4.60;99.90;;;;;;5071929;28;19974;-32
2024/01/09 06:07:44;;;;;;;;;;;-4.60;99.90;;;;;;5069280;28;20015;-31
2024/01/09 06:10:11;;;;;;;;;;;-4.60;99.90;;;;;;5064735;28;19925;-31
2024/01/09 06:12:39;;;;;;;;;;;-4.70;99.90;;;;;;5071302;28;19983;-32
2024/01/09 06:15:06;;;;;;;;;;;-4.60;99.90;;;;;;5071434;28;19940;-31
2024/01/09 06:17:32;;;;;;;;;;;-4.60;99.90;;;;;;5077359;28;19928;-31
2024/01/09 06:20:00;;;;;;;;;;;-4.70;99.90;;;;;;5071715;28;19963;-33
2024/01/09 06:22:27;;;;;;;;;;;-4.70;99.90;;;;;;5070794;28;19982;-31
2024/01/09 06:24:54;;;;;;;;;;;-4.70;99.90;;;;;;5068940;28;20085;-31
2024/01/09 06:27:20;;;;;;;;;;;-4.70;99.90;;;;;;5070065;28;19968;-30
2024/01/09 06:29:48;;;;;;;;;;;-4.70;99.90;;;;;;5070363;28;20368;-31
2024/01/09 06:32:15;;;;;;;;;;;-4.80;99.90;;;;;;5069425;28;19928;-31
2024/01/09 06:34:42;;;;;;;;;;;-4.80;99.90;;;;;;5072304;28;19929;-32
2024/01/09 06:37:08;;;;;;;;;;;-4.80;99.90;;;;;;5068159;28;19928;-31
2024/01/09 06:39:36;;;;;;;;;;;-4.80;99.90;;;;;;5070399;28;20422;-31
2024/01/09 06:42:03;;;;;;;;;;;-4.80;99.90;;;;;;5070481;28;19932;-32
2024/01/09 06:44:29;;;;;;;;;;;-4.80;99.90;;;;;;5067928;28;19978;-32
2024/01/09 06:46:57;;;;;;;;;;;-4.80;99.90;;;;;;5062598;28;19967;-31
2024/01/09 06:49:24;;;;;;;;;;;-4.80;99.90;;;;;;5069187;28;19925;-32
2024/01/09 06:51:53;;;;;;;;;;;-4.80;99.90;;;;;;5070376;28;19989;-31
2024/01/09 06:54:20;;;;;;;;;;;-4.90;99.90;;;;;;5065411;28;20380;-31
2024/01/09 06:56:47;;;;;;;;;;;-4.90;99.90;;;;;;5059779;28;19935;-31
2024/01/09 06:59:13;;;;;;;;;;;-4.90;99.90;;;;;;5068368;28;20426;-31
2024/01/09 07:01:40;;;;;;;;;;;-4.90;99.90;;;;;;5069455;28;19929;-32
2024/01/09 07:04:08;;;;;;;;;;;-4.90;99.90;;;;;;5069319;28;19931;-34
2024/01/09 07:06:35;;;;;;;;;;;-4.90;99.90;;;;;;5069590;28;19924;-33
2024/01/09 07:09:02;;;;;;;;;;;-5.00;99.90;;;;;;5068960;28;19981;-31
2024/01/09 07:11:29;;;;;;;;;;;-4.90;99.90;;;;;;5056557;28;19924;-32
2024/01/09 07:13:56;;;;;;;;;;;-4.90;99.90;;;;;;5070198;28;19955;-32
2024/01/09 07:16:22;;;;;;;;;;;-5.00;99.90;;;;;;5070797;28;19989;-31
2024/01/09 07:18:49;;;;;;;;;;;-5.00;99.90;;;;;;5062327;28;20283;-33
2024/01/09 07:21:17;;;;;;;;;;;-5.00;99.90;;;;;;5068879;28;20018;-31
2024/01/09 07:23:46;;;;;;;;;;;-5.00;99.90;;;;;;5071329;28;19925;-32
2024/01/09 07:26:13;;;;;;;;;;;-5.00;99.90;;;;;;5068528;28;20423;-31
2024/01/09 07:28:41;;;;;;;;;;;-5.00;99.90;;;;;;5070364;28;19924;-31
2024/01/09 07:31:09;;;;;;;;;;;-5.00;99.90;;;;;;5067963;28;19931;-31
2024/01/09 07:33:35;;;;;;;;;;;-5.10;99.90;;;;;;5050447;28;19932;-31
2024/01/09 07:36:02;;;;;;;;;;;-5.00;99.90;;;;;;5058124;28;19972;-31
2024/01/09 07:38:30;;;;;;;;;;;-5.00;99.90;;;;;;5068351;28;19936;-31
2024/01/09 07:40:57;;;;;;;;;;;-5.10;99.90;;;;;;5068220;28;20385;-32
2024/01/09 07:43:24;;;;;;;;;;;-5.10;99.90;;;;;;5070339;28;19955;-31
2024/01/09 07:45:50;;;;;;;;;;;-5.10;99.90;;;;;;5069524;28;20043;-31
2024/01/09 07:48:17;;;;;;;;;;;-5.10;99.90;;;;;;5069967;28;19924;-31
2024/01/09 07:50:43;;;;;;;;;;;-5.10;99.90;;;;;;5069752;28;19924;-33
2024/01/09 07:53:10;;;;;;;;;;;-5.10;99.90;;;;;;5069354;28;19924;-32
2024/01/09 07:55:38;;;;;;;;;;;-5.10;99.90;;;;;;5070437;28;19924;-32
2024/01/09 07:58:06;;;;;;;;;;;-5.10;99.90;;;;;;5070531;28;19943;-31
2024/01/09 08:00:33;;;;;;;;;;;-5.10;99.90;;;;;;5070099;28;19928;-32
2024/01/09 08:02:59;;;;;;;;;;;-5.10;99.90;;;;;;5069887;28;19959;-31
2024/01/09 08:05:26;;;;;;;;;;;-5.10;99.90;;;;;;5070249;28;20371;-31
2024/01/09 08:07:53;;;;;;;;;;;-5.00;99.90;;;;;;5071559;28;19928;-31
2024/01/09 08:10:19;;;;;;;;;;;-5.10;99.90;;;;;;5069245;28;19981;-31
2024/01/09 08:12:47;;;;;;;;;;;-5.10;99.90;;;;;;5070171;28;19928;-32
2024/01/09 08:15:14;;;;;;;;;;;-5.10;99.90;;;;;;5071077;28;19928;-30
2024/01/09 08:17:40;;;;;;;;;;;-5.10;99.90;;;;;;5064002;28;19925;-31
2024/01/09 08:20:08;;;;;;;;;;;-5.10;99.90;;;;;;5049895;28;19940;-31
2024/01/09 08:22:34;;;;;;;;;;;-5.10;99.90;;;;;;5065011;28;20308;-32
2024/01/09 08:25:01;;;;;;;;;;;-5.10;99.90;;;;;;5069390;28;19924;-31
2024/01/09 08:27:28;;;;;;;;;;;-5.10;99.90;;;;;;5069281;28;19947;-31
2024/01/09 08:29:55;;;;;;;;;;;-5.10;99.90;;;;;;5069506;28;19947;-32
2024/01/09 08:32:22;;;;;;;;;;;-5.00;99.90;;;;;;5071009;28;20394;-31
2024/01/09 08:34:49;;;;;;;;;;;-5.00;99.90;;;;;;5070697;28;19924;-32
2024/01/09 08:37:15;;;;;;;;;;;-5.00;99.90;;;;;;5072554;28;19925;-32
2024/01/09 08:39:42;;;;;;;;;;;-5.00;99.90;;;;;;5073757;28;19928;-31
2024/01/09 08:42:09;;;;;;;;;;;-5.00;99.90;;;;;;5073470;28;20477;-32
2024/01/09 08:44:35;;;;;;;;;;;-5.00;99.90;;;;;;5073681;28;19978;-31
2024/01/09 08:47:04;;;;;;;;;;;-4.90;99.90;;;;;;5073138;28;19970;-31
2024/01/09 08:49:31;;;;;;;;;;;-5.00;99.90;;;;;;5075117;28;19931;-33
2024/01/09 08:51:57;;;;;;;;;;;-4.90;99.90;;;;;;5073329;28;19925;-31
2024/01/09 08:54:24;;;;;;;;;;;-4.80;99.90;;;;;;5074767;28;19928;-33
2024/01/09 08:56:51;;;;;;;;;;;-4.80;99.90;;;;;;5073747;28;19950;-34
2024/01/09 08:59:17;;;;;;;;;;;-4.80;99.90;;;;;;5073535;28;19971;-33
2024/01/09 09:01:44;;;;;;;;;;;-4.80;99.90;;;;;;5073581;28;19989;-31
2024/01/09 09:04:12;;;;;;;;;;;-4.70;99.90;;;;;;5074399;28;19971;-32
2024/01/09 09:06:38;;;;;;;;;;;-4.70;99.90;;;;;;5072549;28;19929;-32
2024/01/09 09:09:05;;;;;;;;;;;-4.60;99.90;;;;;;5074422;28;19925;-32
2024/01/09 09:11:32;;;;;;;;;;;-4.60;99.90;;;;;;5070001;28;20003;-31
2024/01/09 09:13:59;;;;;;;;;;;-4.50;99.90;;;;;;5071330;28;20003;-31
2024/01/09 09:16:28;;;;;;;;;;;-4.50;99.90;;;;;;5073260;28;19932;-31
2024/01/09 09:18:55;;;;;;;;;;;-4.40;99.90;;;;;;5067258;28;19928;-32
2024/01/09 09:21:23;;;;;;;;;;;-4.40;99.90;;;;;;5061697;28;19979;-31
2024/01/09 09:23:50;;;;;;;;;;;-4.30;99.90;;;;;;5060045;28;20215;-30
2024/01/09 09:26:16;;;;;;;;;;;-4.30;99.90;;;;;;5069730;28;19928;-31
2024/01/09 09:28:47;;;;;;;;;;;-4.20;99.90;;;;;;5062972;28;20449;-31
2024/01/09 09:31:13;;;;;;;;;;;-4.20;99.90;;;;;;5063013;28;19982;-32
2024/01/09 09:33:41;;;;;;;;;;;-4.20;99.90;;;;;;5072340;28;20257;-31
2024/01/09 09:36:08;;;;;;;;;;;-4.10;99.90;;;;;;5072453;28;19978;-32
2024/01/09 09:38:36;;;;;;;;;;;-4.00;99.90;;;;;;5072026;28;19924;-31
2024/01/09 09:41:04;;;;;;;;;;;-4.00;99.90;;;;;;5072134;28;19936;-31
2024/01/09 09:43:31;;;;;;;;;;;-4.00;99.90;;;;;;5065090;28;19925;-31
2024/01/09 09:45:58;;;;;;;;;;;-3.80;99.90;;;;;;5052861;28;19982;-31
2024/01/09 09:48:24;;;;;;;;;;;-3.80;99.90;;;;;;5068246;28;20334;-33
2024/01/09 09:50:52;;;;;;;;;;;-3.70;99.90;;;;;;5055364;28;20372;-30
2024/01/09 09:53:20;;;;;;;;;;;-3.70;99.90;;;;;;5054903;28;19985;-33
2024/01/09 09:55:48;;;;;;;;;;;-3.50;99.90;;;;;;5055473;28;19932;-31
2024/01/09 09:58:15;;;;;;;;;;;-3.50;99.90;;;;;;5072526;28;19924;-30
2024/01/09 10:00:43;;;;;;;;;;;-3.40;99.90;;;;;;5051735;28;19956;-31
2024/01/09 10:03:09;;;;;;;;;;;-3.40;99.90;;;;;;5072841;28;19931;-31
2024/01/09 10:05:38;;;;;;;;;;;-3.30;99.90;;;;;;5055258;28;19978;-31
2024/01/09 10:08:05;;;;;;;;;;;-3.20;99.90;;;;;;5055315;28;19983;-31
2024/01/09 10:10:31;;;;;;;;;;;-3.10;99.90;;;;;;5054479;28;19924;-34
2024/01/09 10:13:00;;;;;;;;;;;-3.00;99.90;;;;;;5072770;28;19970;-32
2024/01/09 10:15:27;;;;;;;;;;;-3.00;99.90;;;;;;5054571;28;20014;-31
2024/01/09 10:17:53;;;;;;;;;;;-2.90;99.90;;;;;;5072529;28;19974;-32
2024/01/09 10:20:20;;;;;;;;;;;-2.90;99.90;;;;;;5072847;28;19974;-31
2024/01/09 10:22:48;;;;;;;;;;;-2.80;99.90;;;;;;5055089;28;19986;-31
2024/01/09 10:25:17;;;;;;;;;;;-2.80;99.90;;;;;;5072121;28;20318;-30
2024/01/09 10:27:44;;;;;;;;;;;-2.70;99.90;;;;;;5072508;28;19971;-32
2024/01/09 10:30:12;;;;;;;;;;;-2.60;99.90;;;;;;5054973;28;19925;-32
2024/01/09 10:32:39;;;;;;;;;;;-2.60;99.90;;;;;;5054540;28;19924;-32
2024/01/09 10:35:07;;;;;;;;;;;-2.50;99.90;;;;;;5054472;28;20187;-31
2024/01/09 10:37:34;;;;;;;;;;;-2.50;99.90;;;;;;5071996;28;20350;-32
2024/01/09 10:40:00;;;;;;;;;;;-2.40;99.90;;;;;;5072167;28;19924;-31
2024/01/09 10:42:27;;;;;;;;;;;-2.40;99.90;;;;;;5054156;28;19924;-31
2024/01/09 10:44:54;;;;;;;;;;;-2.40;99.90;;;;;;5071940;28;19975;-33
2024/01/09 10:47:22;;;;;;;;;;;-2.30;99.90;;;;;;5071614;28;19995;-31
2024/01/09 10:49:49;;;;;;;;;;;-2.20;99.90;;;;;;5072075;28;19932;-31
2024/01/09 10:52:17;;;;;;;;;;;-2.20;99.90;;;;;;5054457;28;19924;-31
2024/01/09 10:54:44;;;;;;;;;;;-2.10;99.90;;;;;;5054200;28;19929;-33
2024/01/09 10:57:11;;;;;;;;;;;-2.00;99.90;;;;;;5049871;28;19925;-30
2024/01/09 10:59:38;;;;;;;;;;;-2.10;99.90;;;;;;5041170;28;19928;-31
2024/01/09 11:02:05;;;;;;;;;;;-2.00;99.90;;;;;;5071185;28;19925;-31
2024/01/09 11:04:33;;;;;;;;;;;-2.00;99.90;;;;;;5053594;28;20243;-31
2024/01/09 11:07:00;;;;;;;;;;;-2.00;99.90;;;;;;5053374;28;19970;-31
2024/01/09 11:09:28;;;;;;;;;;;-1.90;99.90;;;;;;5053838;28;19960;-32
2024/01/09 11:11:55;;;;;;;;;;;-1.90;99.90;;;;;;5053765;28;19932;-32
2024/01/09 11:14:21;;;;;;;;;;;-1.80;99.90;;;;;;5084637;28;20338;-31
2024/01/09 11:16:48;;;;;;;;;;;-1.80;99.90;;;;;;5091688;28;19981;-31
2024/01/09 11:19:15;;;;;;;;;;;-1.80;99.90;;;;;;5078568;28;19970;-31
2024/01/09 11:21:43;;;;;;;;;;;-1.70;99.90;;;;;;5053483;28;19973;-32
2024/01/09 11:24:09;;;;;;;;;;;-1.70;99.90;;;;;;5053703;28;19977;-34
2024/01/09 11:26:38;;;;;;;;;;;-1.70;99.90;;;;;;5070902;28;19931;-33
2024/01/09 11:29:05;;;;;;;;;;;-1.60;99.90;;;;;;5070981;28;19924;-31
2024/01/09 11:31:35;;;;;;;;;;;-1.60;99.90;;;;;;5070551;28;20160;-31
2024/01/09 11:34:02;;;;;;;;;;;-1.60;99.90;;;;;;5053670;28;19924;-33
2024/01/09 11:36:29;;;;;;;;;;;-1.50;99.90;;;;;;5071223;28;19930;-33
2024/01/09 11:38:59;;;;;;;;;;;-1.40;99.90;;;;;;5053788;28;20311;-32
2024/01/09 11:41:30;;;;;;;;;;;-1.40;99.90;;;;;;5053112;28;19970;-32
2024/01/09 11:43:56;;;;;;;;;;;-1.30;99.90;;;;;;5053081;28;19984;-31
2024/01/09 11:46:23;;;;;;;;;;;-1.20;99.90;;;;;;5052978;28;19968;-32
2024/01/09 11:48:50;;;;;;;;;;;-1.20;99.90;;;;;;5068841;28;20014;-32
2024/01/09 11:51:17;;;;;;;;;;;-1.00;99.90;;;;;;5068666;28;20365;-31
2024/01/09 11:53:44;;;;;;;;;;;-1.20;99.90;;;;;;5071041;28;19943;-33
2024/01/09 11:56:13;;;;;;;;;;;-1.20;99.90;;;;;;5069883;28;19924;-32
2024/01/09 11:58:40;;;;;;;;;;;-1.10;99.90;;;;;;5070026;28;19999;-31
2024/01/09 12:01:06;;;;;;;;;;;-1.10;99.90;;;;;;5070002;28;19983;-32
2024/01/09 12:03:33;;;;;;;;;;;-1.00;99.90;;;;;;5055600;28;20380;-31
2024/01/09 12:06:00;;;;;;;;;;;-0.90;99.90;;;;;;5049853;28;20014;-31
2024/01/09 12:08:27;;;;;;;;;;;-1.00;99.90;;;;;;5050637;28;19928;-31
2024/01/09 12:10:54;;;;;;;;;;;-0.90;99.90;;;;;;5070064;28;19928;-31
2024/01/09 12:13:22;;;;;;;;;;;-0.90;99.90;;;;;;5079365;28;19924;-31
2024/01/09 12:15:49;;;;;;;;;;;-0.80;99.90;;;;;;5095210;28;20420;-33
2024/01/09 12:18:15;;;;;;;;;;;-0.70;99.90;;;;;;5094321;28;19924;-32
2024/01/09 12:20:42;;;;;;;;;;;-0.80;99.90;;;;;;5091047;28;19932;-32
2024/01/09 12:23:09;;;;;;;;;;;-0.80;99.90;;;;;;5056633;28;19925;-32
2024/01/09 12:25:35;;;;;;;;;;;-0.70;99.90;;;;;;5053521;28;20891;-32
2024/01/09 12:28:02;;;;;;;;;;;-0.70;99.90;;;;;;5054066;28;19982;-31
2024/01/09 12:30:31;;;;;;;;;;;-0.60;99.90;;;;;;5053883;28;20356;-30
2024/01/09 12:32:58;;;;;;;;;;;-0.70;99.90;;;;;;5054742;28;20379;-31
2024/01/09 12:35:25;;;;;;;;;;;-0.60;99.90;;;;;;5073545;28;19990;-31
2024/01/09 12:37:51;;;;;;;;;;;-0.60;99.90;;;;;;5074466;28;19946;-32
2024/01/09 12:40:18;;;;;;;;;;;-0.60;99.90;;;;;;5073060;28;20324;-32
2024/01/09 12:42:45;;;;;;;;;;;-0.60;99.90;;;;;;5056159;28;19936;-32
2024/01/09 12:45:12;;;;;;;;;;;-0.60;99.90;;;;;;5070211;28;20606;-32
2024/01/09 12:47:40;;;;;;;;;;;-0.50;99.90;;;;;;5070741;28;20390;-32
2024/01/09 12:50:07;;;;;;;;;;;-0.50;99.90;;;;;;5062156;28;19932;-33
2024/01/09 12:52:34;;;;;;;;;;;-0.40;99.90;;;;;;5072536;28;19935;-32
2024/01/09 12:55:01;;;;;;;;;;;-0.40;99.90;;;;;;5068905;28;19932;-32
2024/01/09 12:57:28;;;;;;;;;;;-0.40;99.90;;;;;;5073078;28;20261;-33
2024/01/09 12:59:54;;;;;;;;;;;-0.40;99.90;;;;;;5072529;28;20460;-32
2024/01/09 13:02:21;;;;;;;;;;;-0.30;99.90;;;;;;5072212;28;19928;-32
2024/01/09 13:04:50;;;;;;;;;;;-0.40;99.90;;;;;;5072205;28;20384;-33
2024/01/09 13:07:18;;;;;;;;;;;-0.30;99.90;;;;;;5073710;28;19928;-32
2024/01/09 13:09:45;;;;;;;;;;;-0.30;99.90;;;;;;5072538;28;19936;-33
2024/01/09 13:12:11;;;;;;;;;;;-0.30;99.90;;;;;;5072211;28;19924;-32
2024/01/09 13:14:39;;;;;;;;;;;-0.30;99.80;;;;;;5090210;28;19928;-33
2024/01/09 13:17:05;;;;;;;;;;;-0.30;99.70;;;;;;5080827;28;19925;-32
2024/01/09 13:19:32;;;;;;;;;;;-0.30;99.90;;;;;;5073069;28;19924;-33
2024/01/09 13:22:00;;;;;;;;;;;-0.30;99.80;;;;;;5072585;28;19970;-31
2024/01/09 13:24:27;;;;;;;;;;;-0.20;99.80;;;;;;5071853;28;19974;-32
2024/01/09 13:26:53;;;;;;;;;;;-0.20;99.10;;;;;;5070877;28;20335;-33
2024/01/09 13:29:23;;;;;;;;;;;-0.20;99.90;;;;;;5056994;28;20366;-33
2024/01/09 13:31:50;;;;;;;;;;;-0.20;99.90;;;;;;5056143;28;19932;-32
2024/01/09 13:34:17;;;;;;;;;;;-0.20;99.90;;;;;;5073619;28;19929;-32
2024/01/09 13:36:43;;;;;;;;;;;-0.20;99.80;;;;;;5071947;28;20500;-31
2024/01/09 13:39:14;;;;;;;;;;;-0.10;99.90;;;;;;5072182;28;20445;-32
2024/01/09 13:41:41;;;;;;;;;;;-0.10;99.80;;;;;;5073614;28;19925;-32
2024/01/09 13:44:07;;;;;;;;;;;0.00;99.90;;;;;;5072253;28;19924;-33
2024/01/09 13:46:36;;;;;;;;;;;-0.10;99.90;;;;;;5071232;28;19928;-32
2024/01/09 13:49:03;;;;;;;;;;;0.00;99.90;;;;;;5071726;28;19928;-33
2024/01/09 13:51:30;;;;;;;;;;;-0.10;99.90;;;;;;5072849;28;19978;-31
2024/01/09 13:53:57;;;;;;;;;;;-0.10;99.80;;;;;;5071776;28;19925;-32
2024/01/09 13:56:26;;;;;;;;;;;-0.10;99.80;;;;;;5071932;28;19929;-30
2024/01/09 13:58:54;;;;;;;;;;;-0.10;99.50;;;;;;5065381;28;19932;-31
2024/01/09 14:01:21;;;;;;;;;;;-0.20;99.30;;;;;;5071268;28;19956;-31
2024/01/09 14:03:48;;;;;;;;;;;-0.20;99.30;;;;;;5056042;28;20372;-30
2024/01/09 14:06:15;;;;;;;;;;;-0.30;98.90;;;;;;5064233;28;19928;-31
2024/01/09 14:08:42;;;;;;;;;;;-0.30;99.90;;;;;;5069168;28;19928;-31
2024/01/09 14:11:08;;;;;;;;;;;-0.30;99.40;;;;;;5053795;28;19959;-32
2024/01/09 14:13:36;;;;;;;;;;;-0.30;99.10;;;;;;5063460;28;19928;-31